createdAt,value
2022-12-08T00:01:42.655Z,101519.28
2022-12-08T00:04:11.532Z,101514.06
2022-12-08T00:06:59.286Z,101507.31
2022-12-08T00:09:36.366Z,101504.94
2022-12-08T00:12:08.468Z,101496.91
2022-12-08T00:14:40.274Z,101498.88
2022-12-08T00:17:10.462Z,101496.91
2022-12-08T00:19:40.106Z,101502.53
2022-12-08T00:22:09.363Z,101494.38
2022-12-08T00:24:39.992Z,101487.91
2022-12-08T00:27:09.220Z,101483.66
2022-12-08T00:29:39.005Z,101483.41
2022-12-08T00:32:07.721Z,101485.63
2022-12-08T00:34:35.881Z,101489.41
2022-12-08T00:37:04.024Z,101479.13
2022-12-08T00:39:34.137Z,101472.94
2022-12-08T00:42:14.194Z,101481.78
2022-12-08T00:44:45.130Z,101473.94
2022-12-08T00:47:14.716Z,101469.56
2022-12-08T00:49:43.105Z,101468.16
2022-12-08T00:52:12.661Z,101460.25
2022-12-08T00:54:40.662Z,101460.00
2022-12-08T00:57:08.637Z,101466.59
2022-12-08T00:59:36.706Z,101449.28
2022-12-08T01:02:06.099Z,101441.41
2022-12-08T01:04:34.167Z,101447.75
2022-12-08T01:07:02.259Z,101439.72
2022-12-08T01:09:30.338Z,101438.91
2022-12-08T01:11:58.358Z,101444.47
2022-12-08T01:14:26.482Z,101438.31
2022-12-08T01:16:54.583Z,101435.78
2022-12-08T01:19:24.338Z,101443.91
2022-12-08T01:21:52.519Z,101440.53
2022-12-08T01:24:22.327Z,101423.69
2022-12-08T01:26:51.703Z,101415.81
2022-12-08T01:29:19.819Z,101423.69
2022-12-08T01:31:47.885Z,101417.78
2022-12-08T01:34:16.158Z,101412.56
2022-12-08T01:36:45.820Z,101412.44
2022-12-08T01:39:16.751Z,101410.72
2022-12-08T01:41:45.963Z,101404.69
2022-12-08T01:44:51.576Z,101403.25
2022-12-08T01:47:19.829Z,101404.25
2022-12-08T01:49:48.575Z,101399.19
2022-12-08T01:52:25.087Z,101407.47
2022-12-08T01:54:57.092Z,101404.34
2022-12-08T01:57:29.210Z,101417.41
2022-12-08T02:00:02.878Z,101408.69
2022-12-08T02:02:46.957Z,101406.19
2022-12-08T02:05:16.162Z,101403.63
2022-12-08T02:07:47.718Z,101403.91
2022-12-08T02:10:19.708Z,101405.84
2022-12-08T02:12:49.257Z,101405.59
2022-12-08T02:15:17.766Z,101402.47
2022-12-08T02:18:57.695Z,101403.47
2022-12-08T02:22:03.770Z,101395.72
2022-12-08T02:24:39.057Z,101391.50
2022-12-08T02:27:29.198Z,101390.66
2022-12-08T02:30:26.151Z,101388.69
2022-12-08T02:33:22.532Z,101381.22
2022-12-08T02:36:00.960Z,101372.38
2022-12-08T02:38:38.309Z,101373.22
2022-12-08T02:41:20.717Z,101378.81
2022-12-08T02:43:54.318Z,101371.81
2022-12-08T02:46:28.223Z,101376.88
2022-12-08T02:48:57.750Z,101367.59
2022-12-08T02:51:27.333Z,101366.75
2022-12-08T02:53:56.375Z,101359.44
2022-12-08T02:56:40.190Z,101360.56
2022-12-08T02:59:39.387Z,101351.88
2022-12-08T03:02:23.073Z,101347.38
2022-12-08T03:05:01.266Z,101335.00
2022-12-08T03:07:34.451Z,101344.97
2022-12-08T03:10:08.424Z,101330.66
2022-12-08T03:12:43.267Z,101331.91
2022-12-08T03:15:36.978Z,101324.16
2022-12-08T03:18:06.775Z,101323.47
2022-12-08T03:20:36.261Z,101320.66
2022-12-08T03:23:09.556Z,101309.28
2022-12-08T03:25:42.250Z,101304.38
2022-12-08T03:28:10.800Z,101310.25
2022-12-08T03:30:42.524Z,101301.09
2022-12-08T03:33:16.663Z,101313.06
2022-12-08T03:35:46.299Z,101301.53
2022-12-08T03:38:17.511Z,101299.53
2022-12-08T03:44:23.435Z,101288.88
2022-12-08T03:46:51.562Z,101290.03
2022-12-08T03:49:19.641Z,101281.88
2022-12-08T03:51:47.701Z,101289.41
2022-12-08T03:54:17.119Z,101286.75
2022-12-08T03:56:46.277Z,101300.91
2022-12-08T03:59:14.513Z,101294.75
2022-12-08T04:01:42.607Z,101296.69
2022-12-08T04:04:10.836Z,101287.19
2022-12-08T04:06:38.842Z,101278.56
2022-12-08T04:09:06.878Z,101275.91
2022-12-08T04:11:36.448Z,101275.06
2022-12-08T04:14:04.555Z,101272.28
2022-12-08T04:16:32.702Z,101272.53
2022-12-08T04:19:00.925Z,101266.97
2022-12-08T04:21:28.971Z,101271.44
2022-12-08T04:24:01.048Z,101263.84
2022-12-08T04:26:29.875Z,101265.06
2022-12-08T04:28:59.275Z,101267.47
2022-12-08T04:31:27.472Z,101266.50
2022-12-08T04:33:55.504Z,101267.75
2022-12-08T04:36:23.622Z,101265.06
2022-12-08T04:38:51.649Z,101260.75
2022-12-08T04:41:19.675Z,101264.34
2022-12-08T04:43:47.735Z,101264.63
2022-12-08T04:46:17.303Z,101258.19
2022-12-08T04:48:45.363Z,101253.97
2022-12-08T04:51:16.542Z,101257.34
2022-12-08T04:53:46.727Z,101260.13
2022-12-08T04:56:15.905Z,101254.81
2022-12-08T04:58:44.058Z,101248.63
2022-12-08T05:01:12.823Z,101251.47
2022-12-08T05:03:42.362Z,101250.34
2022-12-08T05:06:12.063Z,101254.25
2022-12-08T05:08:40.167Z,101248.06
2022-12-08T05:11:11.015Z,101251.84
2022-12-08T05:13:39.209Z,101245.78
2022-12-08T05:16:09.122Z,101243.28
2022-12-08T05:18:37.565Z,101246.91
2022-12-08T05:21:08.054Z,101253.09
2022-12-08T05:23:36.307Z,101257.44
2022-12-08T05:26:04.561Z,101254.88
2022-12-08T05:28:41.421Z,101253.94
2022-12-08T05:31:10.432Z,101244.38
2022-12-08T05:33:38.456Z,101246.91
2022-12-08T05:36:08.798Z,101244.38
2022-12-08T05:38:37.046Z,101239.31
2022-12-08T05:41:05.233Z,101249.00
2022-12-08T05:43:33.352Z,101244.78
2022-12-08T05:46:01.453Z,101235.94
2022-12-08T05:48:30.000Z,101233.00
2022-12-08T05:50:58.101Z,101232.03
2022-12-08T05:53:27.482Z,101230.81
2022-12-08T05:55:55.615Z,101223.06
2022-12-08T05:58:24.638Z,101225.75
2022-12-08T06:00:52.663Z,101216.03
2022-12-08T06:03:20.882Z,101219.44
2022-12-08T06:05:49.226Z,101228.25
2022-12-08T06:08:17.543Z,101228.53
2022-12-08T06:10:47.363Z,101219.44
2022-12-08T06:13:16.177Z,101220.41
2022-12-08T06:15:44.262Z,101222.25
2022-12-08T06:18:12.796Z,101223.81
2022-12-08T06:20:40.825Z,101221.38
2022-12-08T06:23:09.093Z,101218.97
2022-12-08T06:25:37.122Z,101214.63
2022-12-08T06:28:08.529Z,101209.31
2022-12-08T06:30:36.658Z,101205.94
2022-12-08T06:33:04.743Z,101213.81
2022-12-08T06:35:32.950Z,101214.91
2022-12-08T06:38:00.927Z,101215.63
2022-12-08T06:40:29.038Z,101225.56
2022-12-08T06:42:57.099Z,101217.69
2022-12-08T06:45:26.479Z,101215.16
2022-12-08T06:47:54.578Z,101217.69
2022-12-08T06:50:22.729Z,101214.06
2022-12-08T06:53:02.683Z,101207.19
2022-12-08T06:58:21.649Z,101205.75
2022-12-08T07:00:51.220Z,101205.75
2022-12-08T07:03:19.380Z,101212.91
2022-12-08T07:05:47.763Z,101211.78
2022-12-08T07:08:16.049Z,101213.72
2022-12-08T07:10:44.188Z,101199.19
2022-12-08T07:13:12.283Z,101203.66
2022-12-08T07:15:40.665Z,101204.78
2022-12-08T07:18:10.032Z,101203.34
2022-12-08T07:20:38.683Z,101210.63
2022-12-08T07:23:06.726Z,101207.97
2022-12-08T07:25:35.062Z,101209.91
2022-12-08T07:28:08.310Z,101209.91
2022-12-08T07:30:36.442Z,101208.22
2022-12-08T07:33:31.227Z,101212.00
2022-12-08T07:36:04.364Z,101212.72
2022-12-08T07:38:32.624Z,101213.09
2022-12-08T07:41:00.668Z,101209.59
2022-12-08T07:43:29.017Z,101205.09
2022-12-08T07:45:57.088Z,101206.09
2022-12-08T07:48:25.158Z,101205.50
2022-12-08T07:51:43.259Z,101199.31
2022-12-08T07:54:38.877Z,101195.72
2022-12-08T07:57:09.112Z,101192.31
2022-12-08T07:59:37.452Z,101190.50
2022-12-08T08:02:23.462Z,101187.84
2022-12-08T08:04:54.475Z,101194.72
2022-12-08T08:07:22.649Z,101188.69
2022-12-08T08:09:52.085Z,101187.84
2022-12-08T08:12:31.172Z,101188.69
2022-12-08T08:15:00.309Z,101190.25
2022-12-08T08:17:28.639Z,101197.13
2022-12-08T08:19:57.345Z,101196.28
2022-12-08T08:22:26.337Z,101204.38
2022-12-08T08:24:56.109Z,101205.09
2022-12-08T08:27:28.013Z,101203.88
2022-12-08T08:29:56.139Z,101194.19
2022-12-08T08:32:24.116Z,101187.63
2022-12-08T08:34:52.273Z,101190.31
2022-12-08T08:37:23.160Z,101189.31
2022-12-08T08:39:54.058Z,101177.84
2022-12-08T08:42:24.039Z,101187.38
2022-12-08T08:44:54.075Z,101181.78
2022-12-08T08:47:22.047Z,101174.50
2022-12-08T08:49:50.274Z,101169.75
2022-12-08T08:52:18.453Z,101161.66
2022-12-08T08:54:46.441Z,101164.31
2022-12-08T08:57:14.432Z,101162.94
2022-12-08T08:59:43.893Z,101163.78
2022-12-08T09:02:17.427Z,101160.00
2022-12-08T09:04:46.406Z,101163.94
2022-12-08T09:07:16.046Z,101157.78
2022-12-08T09:09:44.471Z,101151.34
2022-12-08T09:12:13.622Z,101159.50
2022-12-08T09:14:43.098Z,101159.94
2022-12-08T09:17:13.199Z,101153.91
2022-12-08T09:19:41.428Z,101144.66
2022-12-08T09:22:11.025Z,101157.72
2022-12-08T09:24:39.116Z,101158.13
2022-12-08T09:27:07.169Z,101148.19
2022-12-08T09:29:36.382Z,101149.63
2022-12-08T09:32:06.664Z,101147.63
2022-12-08T09:34:36.179Z,101146.41
2022-12-08T09:37:04.520Z,101153.16
2022-12-08T09:39:32.584Z,101144.88
2022-12-08T09:42:03.694Z,101149.66
2022-12-08T09:44:45.435Z,101145.47
2022-12-08T09:47:22.384Z,101147.84
2022-12-08T09:49:58.018Z,101149.53
2022-12-08T09:52:31.312Z,101154.28
2022-12-08T09:55:02.392Z,101149.66
2022-12-08T09:57:32.118Z,101157.09
2022-12-08T10:00:06.076Z,101155.72
2022-12-08T10:02:36.529Z,101154.59
2022-12-08T10:05:04.775Z,101162.31
2022-12-08T10:07:40.184Z,101160.06
2022-12-08T10:10:23.770Z,101158.81
2022-12-08T10:12:56.278Z,101152.91
2022-12-08T10:15:38.148Z,101151.25
2022-12-08T10:18:15.191Z,101135.78
2022-12-08T10:20:45.638Z,101143.38
2022-12-08T10:23:23.910Z,101139.28
2022-12-08T10:25:57.127Z,101130.16
2022-12-08T10:28:25.270Z,101129.72
2022-12-08T10:30:53.323Z,101120.31
2022-12-08T10:33:23.864Z,101114.28
2022-12-08T10:35:54.253Z,101116.94
2022-12-08T10:38:24.715Z,101108.22
2022-12-08T10:40:55.692Z,101101.75
2022-12-08T10:43:25.872Z,101097.97
2022-12-08T10:45:54.348Z,101104.81
2022-12-08T10:48:27.368Z,101106.75
2022-12-08T10:50:58.053Z,101106.63
2022-12-08T10:53:27.918Z,101110.84
2022-12-08T10:56:08.559Z,101102.38
2022-12-08T10:58:40.749Z,101098.13
2022-12-08T11:01:14.336Z,101093.50
2022-12-08T11:03:48.872Z,101096.41
2022-12-08T11:06:20.075Z,101097.81
2022-12-08T11:08:51.576Z,101085.28
2022-12-08T11:11:25.835Z,101082.31
2022-12-08T11:13:55.774Z,101080.75
2022-12-08T11:16:25.142Z,101077.47
2022-12-08T11:18:59.369Z,101077.88
2022-12-08T11:21:37.237Z,101080.25
2022-12-08T11:24:22.636Z,101075.59
2022-12-08T11:26:55.272Z,101073.03
2022-12-08T11:29:23.481Z,101065.72
2022-12-08T11:31:58.651Z,101064.56
2022-12-08T11:34:35.415Z,101065.09
2022-12-08T11:37:06.253Z,101057.47
2022-12-08T11:39:37.523Z,101059.66
2022-12-08T11:42:12.697Z,101053.56
2022-12-08T11:44:48.811Z,101053.13
2022-12-08T11:47:21.759Z,101047.31
2022-12-08T11:49:56.844Z,101050.53
2022-12-08T11:52:30.808Z,101039.00
2022-12-08T11:55:23.633Z,101041.19
2022-12-08T11:57:52.753Z,101039.59
2022-12-08T12:00:21.301Z,101031.81
2022-12-08T12:02:56.193Z,101027.66
2022-12-08T12:06:08.823Z,101021.00
2022-12-08T12:08:41.948Z,101024.72
2022-12-08T12:11:41.070Z,101030.78
2022-12-08T12:14:26.230Z,101018.06
2022-12-08T12:17:03.302Z,101024.63
2022-12-08T12:19:37.015Z,101022.63
2022-12-08T12:22:15.381Z,101027.06
2022-12-08T12:24:47.463Z,101017.25
2022-12-08T12:27:28.138Z,101015.78
2022-12-08T12:30:00.081Z,101011.09
2022-12-08T12:32:42.587Z,101014.66
2022-12-08T12:35:17.977Z,101007.13
2022-12-08T12:37:50.017Z,101013.53
2022-12-08T12:40:21.432Z,101007.22
2022-12-08T12:43:25.573Z,101009.28
2022-12-08T12:46:32.447Z,101006.97
2022-12-08T12:49:34.152Z,100998.13
2022-12-08T12:52:02.258Z,100990.91
2022-12-08T12:54:32.191Z,100988.22
2022-12-08T12:57:22.414Z,100987.59
2022-12-08T13:00:09.464Z,100985.09
2022-12-08T13:02:40.842Z,100982.06
2022-12-08T13:05:12.005Z,100980.91
2022-12-08T13:07:43.528Z,100984.78
2022-12-08T13:10:20.072Z,100990.00
2022-12-08T13:13:04.378Z,100985.59
2022-12-08T13:15:36.909Z,100982.44
2022-12-08T13:18:05.853Z,100979.78
2022-12-08T13:20:42.485Z,100977.78
2022-12-08T13:23:27.207Z,100972.41
2022-12-08T13:26:17.135Z,100970.91
2022-12-08T13:29:16.611Z,100967.22
2022-12-08T13:31:50.969Z,100955.31
2022-12-08T13:34:32.789Z,100961.84
2022-12-08T13:37:03.364Z,100967.22
2022-12-08T13:39:38.040Z,100962.88
2022-12-08T13:42:20.249Z,100964.88
2022-12-08T13:48:13.716Z,100966.88
2022-12-08T13:51:15.941Z,100970.91
2022-12-08T13:54:35.424Z,100962.19
2022-12-08T13:59:28.195Z,100957.66
2022-12-08T14:01:58.439Z,100961.34
2022-12-08T14:04:54.400Z,100957.16
2022-12-08T14:07:15.931Z,100951.47
2022-12-08T14:09:44.501Z,100945.09
2022-12-08T14:12:20.562Z,100943.06
2022-12-08T14:15:07.526Z,100937.72
2022-12-08T14:17:35.909Z,100942.25
2022-12-08T14:20:07.543Z,100944.44
2022-12-08T14:22:37.685Z,100945.75
2022-12-08T14:25:07.769Z,100945.41
2022-12-08T14:27:37.976Z,100950.78
2022-12-08T14:30:16.600Z,100948.44
2022-12-08T14:32:49.098Z,100942.41
2022-12-08T14:35:23.467Z,100943.75
2022-12-08T14:37:55.739Z,100946.44
2022-12-08T14:40:26.350Z,100947.47
2022-12-08T14:43:06.215Z,100941.91
2022-12-08T14:45:35.911Z,100941.22
2022-12-08T14:48:21.980Z,100930.50
2022-12-08T14:51:05.132Z,100928.16
2022-12-08T14:53:39.680Z,100924.28
2022-12-08T14:56:18.703Z,100923.31
2022-12-08T14:58:47.816Z,100925.13
2022-12-08T15:01:22.493Z,100922.97
2022-12-08T15:03:51.801Z,100919.28
2022-12-08T15:06:23.230Z,100926.63
2022-12-08T15:09:01.924Z,100918.25
2022-12-08T15:11:35.959Z,100916.25
2022-12-08T15:14:04.515Z,100914.72
2022-12-08T15:16:41.707Z,100915.56
2022-12-08T15:19:23.291Z,100912.56
2022-12-08T15:21:52.174Z,100913.88
2022-12-08T15:24:23.003Z,100906.34
2022-12-08T15:26:52.432Z,100915.72
2022-12-08T15:29:22.634Z,100911.53
2022-12-08T15:31:54.903Z,100912.84
2022-12-08T15:34:23.057Z,100909.16
2022-12-08T15:36:53.100Z,100913.84
2022-12-08T15:39:30.231Z,100911.00
2022-12-08T15:41:58.353Z,100916.66
2022-12-08T15:44:26.580Z,100921.00
2022-12-08T15:46:56.627Z,100922.16
2022-12-08T15:49:25.486Z,100922.81
2022-12-08T15:52:01.954Z,100921.44
2022-12-08T15:54:32.994Z,100927.44
2022-12-08T16:04:09.025Z,100939.75
2022-12-08T16:07:12.821Z,100926.00
2022-12-08T16:09:13.295Z,100928.03
2022-12-08T16:12:08.287Z,100932.00
2022-12-08T16:17:27.139Z,100925.09
2022-12-08T16:19:56.752Z,100915.41
2022-12-08T16:22:52.819Z,100914.84
2022-12-08T16:25:20.418Z,100921.53
2022-12-08T16:28:29.570Z,100919.31
2022-12-08T16:30:38.805Z,100920.66
2022-12-08T16:33:07.447Z,100918.28
2022-12-08T16:35:36.926Z,100919.72
2022-12-08T16:38:05.277Z,100915.38
2022-12-08T16:40:53.692Z,100914.19
2022-12-08T16:43:20.964Z,100916.34
2022-12-08T16:45:52.144Z,100913.81
2022-12-08T16:48:20.699Z,100917.31
2022-12-08T16:50:50.215Z,100921.16
2022-12-08T16:53:18.324Z,100922.00
2022-12-08T16:55:47.983Z,100919.78
2022-12-08T16:58:18.362Z,100916.13
2022-12-08T17:00:46.652Z,100915.13
2022-12-08T17:03:16.751Z,100910.63
2022-12-08T17:05:45.304Z,100906.94
2022-12-08T17:08:14.873Z,100911.59
2022-12-08T17:10:42.959Z,100922.00
2022-12-08T17:13:13.007Z,100912.16
2022-12-08T17:15:41.342Z,100914.00
2022-12-08T17:18:09.299Z,100911.97
2022-12-08T17:20:37.351Z,100923.16
2022-12-08T17:23:05.388Z,100920.94
2022-12-08T17:25:34.775Z,100925.91
2022-12-08T17:28:02.792Z,100929.22
2022-12-08T17:30:30.867Z,100924.00
2022-12-08T17:33:00.835Z,100926.16
2022-12-08T17:35:28.889Z,100923.81
2022-12-08T17:37:56.994Z,100928.31
2022-12-08T17:40:28.153Z,100918.78
2022-12-08T17:42:57.836Z,100925.41
2022-12-08T17:45:25.867Z,100922.72
2022-12-08T17:47:53.924Z,100921.22
2022-12-08T17:50:22.094Z,100917.31
2022-12-08T17:52:51.510Z,100921.31
2022-12-08T17:55:19.570Z,100925.56
2022-12-08T17:57:47.598Z,100924.03
2022-12-08T18:00:17.453Z,100920.38
2022-12-08T18:02:45.952Z,100927.16
2022-12-08T18:05:14.104Z,100921.28
2022-12-08T18:07:42.499Z,100920.75
2022-12-08T18:10:10.603Z,100924.72
2022-12-08T18:12:39.639Z,100918.00
2022-12-08T18:15:12.659Z,100921.13
2022-12-08T18:17:42.027Z,100929.59
2022-12-08T18:20:10.985Z,100927.22
2022-12-08T18:22:39.064Z,100939.22
2022-12-08T18:25:08.177Z,100926.75
2022-12-08T18:27:41.442Z,100927.88
2022-12-08T18:30:15.393Z,100930.00
2022-12-08T18:32:45.036Z,100929.78
2022-12-08T18:35:13.434Z,100934.56
2022-12-08T18:37:42.994Z,100930.41
2022-12-08T18:40:12.584Z,100928.72
2022-12-08T18:42:40.605Z,100922.97
2022-12-08T18:45:09.395Z,100925.41
2022-12-08T18:47:39.512Z,100924.88
2022-12-08T18:50:11.048Z,100923.16
2022-12-08T18:52:39.133Z,100923.91
2022-12-08T18:55:08.476Z,100917.03
2022-12-08T18:57:39.385Z,100926.31
2022-12-08T19:00:11.457Z,100917.63
2022-12-08T19:02:40.051Z,100932.25
2022-12-08T19:05:11.629Z,100937.88
2022-12-08T19:07:39.944Z,100928.34
2022-12-08T19:10:09.402Z,100931.13
2022-12-08T19:12:37.635Z,100924.69
2022-12-08T19:15:06.526Z,100921.75
2022-12-08T19:17:34.787Z,100924.97
2022-12-08T19:20:03.599Z,100932.31
2022-12-08T19:22:33.113Z,100928.22
2022-12-08T19:25:01.138Z,100929.53
2022-12-08T19:27:29.247Z,100922.78
2022-12-08T19:29:58.818Z,100922.06
2022-12-08T19:32:27.163Z,100922.22
2022-12-08T19:34:55.219Z,100910.56
2022-12-08T19:37:23.413Z,100914.66
2022-12-08T19:40:06.854Z,100921.94
2022-12-08T19:42:52.679Z,100911.44
2022-12-08T19:45:22.801Z,100920.56
2022-12-08T19:47:51.196Z,100914.41
2022-12-08T19:50:38.149Z,100911.28
2022-12-08T19:53:07.296Z,100911.03
2022-12-08T19:55:36.801Z,100901.63
2022-12-08T19:58:06.745Z,100910.75
2022-12-08T20:00:36.381Z,100906.28
2022-12-08T20:03:05.334Z,100902.75
2022-12-08T20:06:00.809Z,100908.50
2022-12-08T20:08:28.886Z,100907.53
2022-12-08T20:10:59.425Z,100906.78
2022-12-08T20:13:45.242Z,100908.75
2022-12-08T20:16:14.880Z,100912.13
2022-12-08T20:18:44.357Z,100906.78
2022-12-08T20:21:13.416Z,100913.53
2022-12-08T20:23:41.629Z,100914.06
2022-12-08T20:26:15.746Z,100912.94
2022-12-08T20:28:44.175Z,100913.78
2022-12-08T20:31:19.207Z,100924.69
2022-12-08T20:33:48.345Z,100916.00
2022-12-08T20:36:19.267Z,100923.03
2022-12-08T20:38:49.824Z,100928.34
2022-12-08T20:41:19.988Z,100933.69
2022-12-08T20:43:51.886Z,100924.84
2022-12-08T20:46:21.362Z,100924.97
2022-12-08T20:48:49.861Z,100916.16
2022-12-08T20:51:19.435Z,100917.16
2022-12-08T20:53:48.156Z,100925.28
2022-12-08T20:56:17.880Z,100914.06
2022-12-08T20:58:48.009Z,100920.53
2022-12-08T21:01:22.621Z,100917.16
2022-12-08T21:03:51.231Z,100918.28
2022-12-08T21:06:22.239Z,100915.38
2022-12-08T21:08:52.833Z,100913.81
2022-12-08T21:11:21.205Z,100920.28
2022-12-08T21:13:50.902Z,100911.56
2022-12-08T21:16:44.725Z,100912.16
2022-12-08T21:19:13.378Z,100906.00
2022-12-08T21:21:41.406Z,100911.59
2022-12-08T21:24:10.705Z,100908.53
2022-12-08T21:26:39.161Z,100913.28
2022-12-08T21:29:08.604Z,100916.22
2022-12-08T21:31:36.749Z,100916.38
2022-12-08T21:34:05.355Z,100913.00
2022-12-08T21:36:33.749Z,100912.72
2022-12-08T21:39:02.834Z,100917.09
2022-12-08T21:41:48.984Z,100912.19
2022-12-08T21:44:19.537Z,100908.53
2022-12-08T21:46:48.126Z,100908.69
2022-12-08T21:49:17.355Z,100908.25
2022-12-08T21:51:45.701Z,100906.03
2022-12-08T21:54:18.652Z,100912.47
2022-12-08T21:56:48.708Z,100906.00
2022-12-08T21:59:19.781Z,100904.34
2022-12-08T22:01:49.098Z,100904.06
2022-12-08T22:04:18.495Z,100905.72
2022-12-08T22:06:47.074Z,100900.69
2022-12-08T22:09:15.292Z,100904.34
2022-12-08T22:12:45.355Z,100911.91
2022-12-08T22:15:15.091Z,100902.91
2022-12-08T22:17:45.048Z,100901.78
2022-12-08T22:20:15.666Z,100906.28
2022-12-08T22:22:44.323Z,100907.69
2022-12-08T22:25:13.188Z,100902.22
2022-12-08T22:27:42.231Z,100904.91
2022-12-08T22:30:12.006Z,100894.66
2022-12-08T22:32:42.087Z,100905.44
2022-12-08T22:35:11.270Z,100893.50
2022-12-08T22:37:39.427Z,100900.38
2022-12-08T22:40:09.020Z,100892.84
2022-12-08T22:42:37.482Z,100890.44
2022-12-08T22:45:06.235Z,100904.59
2022-12-08T22:47:34.583Z,100894.91
2022-12-08T22:50:05.173Z,100894.25
2022-12-08T22:52:33.600Z,100898.97
2022-12-08T22:55:01.591Z,100893.94
2022-12-08T22:57:30.066Z,100886.22
2022-12-08T22:59:58.193Z,100888.34
2022-12-08T23:02:26.564Z,100888.34
2022-12-08T23:04:57.068Z,100888.63
2022-12-08T23:07:26.811Z,100883.53
2022-12-08T23:09:55.073Z,100886.19
2022-12-08T23:12:23.576Z,100887.47
2022-12-08T23:14:51.694Z,100893.63
2022-12-08T23:17:20.151Z,100888.75
2022-12-08T23:19:51.054Z,100891.41
2022-12-08T23:22:19.175Z,100884.41
2022-12-08T23:24:48.665Z,100891.13
2022-12-08T23:27:16.797Z,100883.53
2022-12-08T23:29:44.888Z,100877.38
2022-12-08T23:32:13.113Z,100869.53
2022-12-08T23:34:41.348Z,100877.78
2022-12-08T23:37:09.706Z,100875.13
2022-12-08T23:39:37.798Z,100877.06
2022-12-08T23:42:07.749Z,100877.34
2022-12-08T23:44:35.795Z,100872.31
2022-12-08T23:47:04.003Z,100876.63
2022-12-08T23:49:32.008Z,100879.56
2022-12-08T23:52:00.258Z,100883.22
2022-12-08T23:54:28.360Z,100872.59
2022-12-08T23:56:56.381Z,100883.50
2022-12-08T23:59:25.801Z,100886.00
